Time;durP1;ratioP1;P1;durP2;ratioP2;P2;SDS_P1;SDS_P2;PMS_P1;PMS_P2;Temp;Humidity;BMP_temperature;BMP_pressure;BME280_temperature;BME280_humidity;BME280_pressure;Samples;Min_cycle;Max_cycle;Signal;HPM_P1;HPM_P2
2023/09/18 00:00:08;;;;;;;1999.90;999.90;;;17.90;99.90;;;;;;5051999;28;20112;-77
2023/09/18 00:02:34;;;;;;;1999.90;999.90;;;17.90;99.90;;;;;;5050780;28;20056;-77
2023/09/18 00:04:59;;;;;;;1999.90;999.90;;;17.80;99.90;;;;;;5051623;28;20068;-75
2023/09/18 00:07:25;;;;;;;1999.90;999.90;;;17.80;99.90;;;;;;5050807;28;20091;-77
2023/09/18 00:09:51;;;;;;;1999.90;999.90;;;17.70;99.90;;;;;;5051864;28;20025;-77
2023/09/18 00:12:16;;;;;;;1999.90;999.90;;;17.70;99.90;;;;;;5052005;28;20021;-77
2023/09/18 00:14:42;;;;;;;1999.90;999.90;;;17.70;99.90;;;;;;5052034;28;20017;-74
2023/09/18 00:17:08;;;;;;;1999.90;999.90;;;17.70;99.90;;;;;;5052370;28;20028;-77
2023/09/18 00:19:33;;;;;;;1999.90;999.90;;;17.70;99.90;;;;;;5052902;28;20028;-75
2023/09/18 00:22:00;;;;;;;1999.90;999.90;;;17.70;99.90;;;;;;5055500;28;20052;-77
2023/09/18 00:24:27;;;;;;;1999.90;999.90;;;17.70;99.90;;;;;;5047734;28;20070;-77
2023/09/18 00:26:53;;;;;;;1999.90;999.90;;;17.80;99.90;;;;;;5038631;28;20030;-77
2023/09/18 00:29:19;;;;;;;1999.90;999.90;;;17.70;99.90;;;;;;5035973;28;20105;-74
2023/09/18 00:31:45;;;;;;;1999.90;999.90;;;17.70;99.90;;;;;;5048085;28;20104;-75
2023/09/18 00:34:10;;;;;;;1999.90;999.90;;;17.70;99.90;;;;;;5055195;28;20032;-77
2023/09/18 00:36:39;;;;;;;1999.90;999.90;;;17.70;99.90;;;;;;5055464;28;20025;-77
2023/09/18 00:39:04;;;;;;;1999.90;999.90;;;17.70;99.90;;;;;;5055331;28;20072;-77
2023/09/18 00:41:30;;;;;;;1999.90;999.90;;;17.70;99.90;;;;;;5055574;28;20528;-77
2023/09/18 00:43:55;;;;;;;1999.90;999.90;;;17.70;99.90;;;;;;5055399;28;20072;-75
2023/09/18 00:46:22;;;;;;;1999.90;999.90;;;17.80;99.90;;;;;;5055632;28;20053;-77
2023/09/18 00:48:48;;;;;;;1999.90;999.90;;;17.70;99.90;;;;;;5054557;28;20446;-74
2023/09/18 00:51:15;;;;;;;1999.90;999.90;;;17.70;99.90;;;;;;5055334;28;20079;-74
2023/09/18 00:53:45;;;;;;;1999.90;999.90;;;17.70;99.90;;;;;;5052854;28;20032;-78
2023/09/18 00:56:11;;;;;;;1999.90;999.90;;;17.70;99.90;;;;;;5055399;28;20427;-74
2023/09/18 00:58:38;;;;;;;1999.90;999.90;;;17.70;99.90;;;;;;5054938;28;20028;-77
2023/09/18 01:01:04;;;;;;;1999.90;999.90;;;17.70;99.90;;;;;;5054879;28;20387;-77
2023/09/18 01:03:30;;;;;;;1999.90;999.90;;;17.70;99.90;;;;;;5054067;28;20029;-77
2023/09/18 01:05:56;;;;;;;1999.90;999.90;;;17.70;99.90;;;;;;5054914;28;20086;-77
2023/09/18 01:08:30;;;;;;;1999.90;999.90;;;17.70;99.90;;;;;;5054897;28;20043;-75
2023/09/18 01:11:05;;;;;;;1999.90;999.90;;;17.60;99.90;;;;;;5054952;28;20017;-77
2023/09/18 01:13:38;;;;;;;1999.90;999.90;;;17.60;99.90;;;;;;5054711;28;20045;-77
2023/09/18 01:16:43;;;;;;;1999.90;999.90;;;17.60;99.90;;;;;;5054995;28;20021;-77
2023/09/18 01:19:10;;;;;;;1999.90;999.90;;;17.50;99.90;;;;;;5054562;28;20045;-77
2023/09/18 01:21:37;;;;;;;1999.90;999.90;;;17.50;99.90;;;;;;5054774;28;20021;-74
2023/09/18 01:24:03;;;;;;;1999.90;999.90;;;17.40;99.90;;;;;;5046562;28;20033;-77
2023/09/18 01:26:30;;;;;;;1999.90;999.90;;;17.40;99.90;;;;;;5041011;28;20029;-77
2023/09/18 01:28:56;;;;;;;1999.90;999.90;;;17.40;99.90;;;;;;5035029;28;20087;-77
2023/09/18 01:31:22;;;;;;;1999.90;999.90;;;17.40;99.90;;;;;;5043442;28;20107;-77
2023/09/18 01:33:49;;;;;;;1999.90;999.90;;;17.40;99.90;;;;;;5054545;28;20025;-74
2023/09/18 01:36:18;;;;;;;1999.90;999.90;;;17.50;99.90;;;;;;5054091;28;20027;-74
2023/09/18 01:38:44;;;;;;;1999.90;999.90;;;17.60;99.90;;;;;;5054046;28;20480;-77
2023/09/18 01:41:10;;;;;;;1999.90;999.90;;;17.60;99.90;;;;;;5054141;28;20143;-77
2023/09/18 01:43:36;;;;;;;1999.90;999.90;;;17.70;99.90;;;;;;5054099;28;20029;-77
2023/09/18 01:46:03;;;;;;;1999.90;999.90;;;17.70;99.90;;;;;;5054504;28;20396;-74
2023/09/18 01:48:29;;;;;;;1999.90;999.90;;;17.70;99.90;;;;;;5053979;28;20025;-74
2023/09/18 01:50:54;;;;;;;1999.90;999.90;;;17.70;99.90;;;;;;5054125;28;20033;-78
2023/09/18 01:53:20;;;;;;;1999.90;999.90;;;17.70;99.90;;;;;;5053924;28;20072;-78
2023/09/18 01:55:47;;;;;;;1999.90;999.90;;;17.70;99.90;;;;;;5053775;28;20021;-74
2023/09/18 01:58:14;;;;;;;1999.90;999.90;;;17.70;99.90;;;;;;5054197;28;20049;-78
2023/09/18 02:00:40;;;;;;;1999.90;999.90;;;17.60;99.90;;;;;;5053635;28;20434;-78
2023/09/18 02:03:05;;;;;;;1999.90;999.90;;;17.60;99.90;;;;;;5053752;28;20029;-78
2023/09/18 02:05:32;;;;;;;1999.90;999.90;;;17.60;99.90;;;;;;5053479;28;20100;-78
2023/09/18 02:07:58;;;;;;;1999.90;999.90;;;17.60;99.90;;;;;;5053749;28;20024;-78
2023/09/18 02:10:23;;;;;;;1999.90;999.90;;;17.60;99.90;;;;;;5053429;28;20025;-78
2023/09/18 02:12:49;;;;;;;1999.90;999.90;;;17.60;99.90;;;;;;5053664;28;20551;-74
2023/09/18 02:15:16;;;;;;;1999.90;999.90;;;17.60;99.90;;;;;;5053503;28;20024;-74
2023/09/18 02:17:42;;;;;;;1999.90;999.90;;;17.70;99.90;;;;;;5053858;28;20104;-78
2023/09/18 02:20:11;;;;;;;1999.90;999.90;;;17.70;99.90;;;;;;5053501;28;20143;-78
2023/09/18 02:22:39;;;;;;;1999.90;999.90;;;17.70;99.90;;;;;;5052000;28;20032;-78
2023/09/18 02:25:05;;;;;;;1999.90;999.90;;;17.70;99.90;;;;;;5045414;28;20123;-74
2023/09/18 02:27:31;;;;;;;1999.90;999.90;;;17.70;99.90;;;;;;5033673;28;20033;-78
2023/09/18 02:29:57;;;;;;;1999.90;999.90;;;17.60;99.90;;;;;;5033484;28;20028;-78
2023/09/18 02:32:22;;;;;;;1999.90;999.90;;;17.50;99.90;;;;;;5050821;28;20051;-74
2023/09/18 02:34:48;;;;;;;1999.90;999.90;;;17.50;99.90;;;;;;5053002;28;20400;-78
2023/09/18 02:37:13;;;;;;;1999.90;999.90;;;17.50;99.90;;;;;;5053324;28;20033;-78
2023/09/18 02:39:39;;;;;;;1999.90;999.90;;;17.50;99.90;;;;;;5051614;28;20105;-77
2023/09/18 02:42:05;;;;;;;1999.90;999.90;;;17.50;99.90;;;;;;5052485;28;20017;-74
2023/09/18 02:44:30;;;;;;;1999.90;999.90;;;17.60;99.90;;;;;;5053010;28;20025;-74
2023/09/18 02:46:56;;;;;;;1999.90;999.90;;;17.60;99.90;;;;;;5053207;28;20125;-74
2023/09/18 02:49:21;;;;;;;1999.90;999.90;;;17.60;99.90;;;;;;5053083;28;20506;-78
2023/09/18 02:51:48;;;;;;;1999.90;999.90;;;17.60;99.90;;;;;;5052698;28;20057;-74
2023/09/18 02:54:13;;;;;;;1999.90;999.90;;;17.60;99.90;;;;;;5053071;28;20021;-78
2023/09/18 02:56:39;;;;;;;1999.90;999.90;;;17.50;99.90;;;;;;5053161;28;20029;-78
2023/09/18 02:59:05;;;;;;;1999.90;999.90;;;17.50;99.90;;;;;;5052925;28;20021;-78
2023/09/18 03:01:30;;;;;;;1999.90;999.90;;;17.50;99.90;;;;;;5052969;28;20025;-78
2023/09/18 03:03:56;;;;;;;1999.90;999.90;;;17.40;99.90;;;;;;5052278;28;20045;-74
2023/09/18 03:06:22;;;;;;;1999.90;999.90;;;17.40;99.90;;;;;;5052654;28;20552;-78
2023/09/18 03:08:47;;;;;;;1999.90;999.90;;;17.40;99.90;;;;;;5052767;28;20028;-78
2023/09/18 03:11:14;;;;;;;1999.90;999.90;;;17.40;99.90;;;;;;5051346;28;20033;-78
2023/09/18 03:13:46;;;;;;;1999.90;999.90;;;17.30;99.90;;;;;;5051405;28;20170;-74
2023/09/18 03:16:13;;;;;;;1999.90;999.90;;;17.30;99.90;;;;;;5052658;28;20025;-78
2023/09/18 03:18:38;;;;;;;1999.90;999.90;;;17.40;99.90;;;;;;5052642;28;20175;-75
2023/09/18 03:21:04;;;;;;;1999.90;999.90;;;17.40;99.90;;;;;;5052455;28;20666;-74
2023/09/18 03:23:30;;;;;;;1999.90;999.90;;;17.40;99.90;;;;;;5046132;28;20036;-74
2023/09/18 03:25:55;;;;;;;1999.90;999.90;;;17.40;99.90;;;;;;5041460;28;20025;-78
2023/09/18 03:28:21;;;;;;;1999.90;999.90;;;17.40;99.90;;;;;;5032620;28;20382;-78
2023/09/18 03:30:46;;;;;;;1999.90;999.90;;;17.40;99.90;;;;;;5036893;28;20400;-74
2023/09/18 03:33:12;;;;;;;1999.90;999.90;;;17.40;99.90;;;;;;5052579;28;20032;-74
2023/09/18 03:35:54;;;;;;;1999.90;999.90;;;17.30;99.90;;;;;;5052397;28;20028;-78
2023/09/18 03:38:20;;;;;;;1999.90;999.90;;;17.30;99.90;;;;;;5052510;28;20025;-78
2023/09/18 03:40:46;;;;;;;1999.90;999.90;;;17.30;99.90;;;;;;5052098;28;20016;-78
2023/09/18 03:43:12;;;;;;;1999.90;999.90;;;17.40;99.90;;;;;;5052624;28;20036;-74
2023/09/18 03:45:39;;;;;;;1999.90;999.90;;;17.40;99.90;;;;;;5052493;28;20510;-78
2023/09/18 03:48:04;;;;;;;1999.90;999.90;;;17.40;99.90;;;;;;5052493;28;20029;-78
2023/09/18 03:50:30;;;;;;;1999.90;999.90;;;17.30;99.90;;;;;;5051814;28;20365;-78
2023/09/18 03:52:56;;;;;;;1999.90;999.90;;;17.30;99.90;;;;;;5051365;28;20502;-78
2023/09/18 03:55:21;;;;;;;1999.90;999.90;;;17.30;99.90;;;;;;5054562;28;20024;-78
2023/09/18 03:57:48;;;;;;;1999.90;999.90;;;17.30;99.90;;;;;;5056512;28;20099;-74
2023/09/18 04:00:15;;;;;;;1999.90;999.90;;;17.40;99.90;;;;;;5055925;28;20023;-78
2023/09/18 04:02:40;;;;;;;1999.90;999.90;;;17.40;99.90;;;;;;5056212;28;20024;-78
2023/09/18 04:05:07;;;;;;;1999.90;999.90;;;17.40;99.90;;;;;;5054367;28;20531;-78
2023/09/18 04:07:32;;;;;;;1999.90;999.90;;;17.50;99.90;;;;;;5055996;28;20108;-78
2023/09/18 04:09:58;;;;;;;1999.90;999.90;;;17.50;99.90;;;;;;5056111;28;20443;-74
2023/09/18 04:12:24;;;;;;;1999.90;999.90;;;17.50;99.90;;;;;;5055863;28;20044;-78
2023/09/18 04:14:50;;;;;;;1999.90;999.90;;;17.50;99.90;;;;;;5055802;28;20086;-78
2023/09/18 04:17:16;;;;;;;1999.90;999.90;;;17.60;99.90;;;;;;5055544;28;20024;-78
2023/09/18 04:19:43;;;;;;;1999.90;999.90;;;17.60;99.90;;;;;;5055278;28;20021;-78
2023/09/18 04:22:09;;;;;;;1999.90;999.90;;;17.50;99.90;;;;;;5055721;28;20515;-74
2023/09/18 04:24:34;;;;;;;1999.90;999.90;;;17.50;99.90;;;;;;5047371;28;20032;-78
2023/09/18 04:27:00;;;;;;;1999.90;999.90;;;17.50;99.90;;;;;;5037682;28;20392;-78
2023/09/18 04:29:26;;;;;;;1999.90;999.90;;;17.60;99.90;;;;;;5035616;28;20029;-78
2023/09/18 04:31:53;;;;;;;1999.90;999.90;;;17.50;99.90;;;;;;5042611;28;20026;-78
2023/09/18 04:34:19;;;;;;;1999.90;999.90;;;17.50;99.90;;;;;;5053385;28;20468;-78
2023/09/18 04:36:45;;;;;;;1999.90;999.90;;;17.60;99.90;;;;;;5055250;28;20067;-74
2023/09/18 04:39:10;;;;;;;1999.90;999.90;;;17.60;99.90;;;;;;5055585;28;20028;-74
2023/09/18 04:41:36;;;;;;;1999.90;999.90;;;17.60;99.90;;;;;;5055385;28;20388;-78
2023/09/18 04:44:02;;;;;;;1999.90;999.90;;;17.60;99.90;;;;;;5054042;28;20056;-78
2023/09/18 04:46:29;;;;;;;1999.90;999.90;;;17.60;99.90;;;;;;5055418;28;20025;-78
2023/09/18 04:48:55;;;;;;;1999.90;999.90;;;17.60;99.90;;;;;;5055426;28;20444;-78
2023/09/18 04:51:21;;;;;;;1999.90;999.90;;;17.60;99.90;;;;;;5055143;28;20025;-74
2023/09/18 04:53:47;;;;;;;1999.90;999.90;;;17.60;99.90;;;;;;5055345;28;20472;-79
2023/09/18 04:56:13;;;;;;;1999.90;999.90;;;17.50;99.90;;;;;;5053282;28;20084;-78
2023/09/18 04:58:39;;;;;;;1999.90;999.90;;;17.50;99.90;;;;;;5053332;28;20071;-78
2023/09/18 05:01:05;;;;;;;1999.90;999.90;;;17.50;99.90;;;;;;5053349;28;20507;-78
2023/09/18 05:03:33;;;;;;;1999.90;999.90;;;17.60;99.90;;;;;;5054628;28;20082;-75
2023/09/18 05:05:59;;;;;;;1999.90;999.90;;;17.60;99.90;;;;;;5054246;28;20038;-74
2023/09/18 05:08:25;;;;;;;1999.90;999.90;;;17.60;99.90;;;;;;5054566;28;20052;-78
2023/09/18 05:10:50;;;;;;;1999.90;999.90;;;17.60;99.90;;;;;;5053204;28;20399;-78
2023/09/18 05:13:16;;;;;;;1999.90;999.90;;;17.60;99.90;;;;;;5054999;28;20053;-78
2023/09/18 05:15:42;;;;;;;1999.90;999.90;;;17.50;99.90;;;;;;5054277;28;20033;-74
2023/09/18 05:18:08;;;;;;;1999.90;999.90;;;17.60;99.90;;;;;;5054466;28;20028;-74
2023/09/18 05:20:35;;;;;;;1999.90;999.90;;;17.60;99.90;;;;;;5053912;28;20028;-78
2023/09/18 05:23:02;;;;;;;1999.90;999.90;;;17.70;99.90;;;;;;5051369;28;20034;-78
2023/09/18 05:25:31;;;;;;;1999.90;999.90;;;17.70;99.90;;;;;;5045436;28;20060;-78
2023/09/18 05:27:59;;;;;;;1999.90;999.90;;;17.70;99.90;;;;;;5034425;28;20025;-74
2023/09/18 05:30:30;;;;;;;1999.90;999.90;;;17.70;99.90;;;;;;5035299;28;20400;-74
2023/09/18 05:32:57;;;;;;;1999.90;999.90;;;17.70;99.90;;;;;;5050389;28;20028;-78
2023/09/18 05:35:23;;;;;;;1999.90;999.90;;;17.70;99.90;;;;;;5051458;28;20033;-78
2023/09/18 05:37:50;;;;;;;1999.90;999.90;;;17.70;99.90;;;;;;5060877;28;20033;-78
2023/09/18 05:40:16;;;;;;;1999.90;999.90;;;17.70;99.90;;;;;;5057118;28;20018;-73
2023/09/18 05:42:43;;;;;;;1999.90;999.90;;;17.80;99.90;;;;;;5057032;28;20033;-73
2023/09/18 05:45:13;;;;;;;1999.90;999.90;;;17.80;99.90;;;;;;5073650;28;20100;-78
2023/09/18 05:47:39;;;;;;;1999.90;999.90;;;17.80;99.90;;;;;;5073525;28;20052;-78
2023/09/18 05:50:09;;;;;;;1999.90;999.90;;;17.80;99.90;;;;;;5073504;28;20507;-78
2023/09/18 05:52:35;;;;;;;1999.90;999.90;;;17.80;99.90;;;;;;5072319;28;20028;-78
2023/09/18 05:55:04;;;;;;;1999.90;999.90;;;17.80;99.90;;;;;;5073908;28;20032;-74
2023/09/18 05:57:30;;;;;;;1999.90;999.90;;;17.90;99.90;;;;;;5073018;28;20032;-74
2023/09/18 05:59:56;;;;;;;1999.90;999.90;;;17.80;99.90;;;;;;5065488;28;20032;-78
2023/09/18 06:02:23;;;;;;;1999.90;999.90;;;17.80;99.90;;;;;;5052024;28;20021;-78
2023/09/18 06:04:49;;;;;;;1999.90;999.90;;;17.80;99.90;;;;;;5052199;28;20559;-78
2023/09/18 06:07:14;;;;;;;1999.90;999.90;;;17.80;99.90;;;;;;5066307;28;20032;-74
2023/09/18 06:09:40;;;;;;;1999.90;999.90;;;17.90;99.90;;;;;;5055548;28;20540;-74
2023/09/18 06:12:06;;;;;;;1999.90;999.90;;;17.90;99.90;;;;;;5052085;28;20033;-74
2023/09/18 06:14:34;;;;;;;1999.90;999.90;;;17.90;99.90;;;;;;5052346;28;20503;-78
2023/09/18 06:17:01;;;;;;;1999.90;999.90;;;18.00;99.90;;;;;;5050108;28;20033;-79
2023/09/18 06:19:26;;;;;;;1999.90;999.90;;;18.00;99.90;;;;;;5052637;28;20017;-78
2023/09/18 06:21:52;;;;;;;1999.90;999.90;;;18.10;99.90;;;;;;5062341;28;20035;-78
2023/09/18 06:24:17;;;;;;;1999.90;999.90;;;18.10;99.90;;;;;;5049566;28;20404;-79
2023/09/18 06:26:43;;;;;;;1999.90;999.90;;;18.10;99.90;;;;;;5039412;28;20049;-79
2023/09/18 06:29:09;;;;;;;1999.90;999.90;;;18.10;99.90;;;;;;5052115;28;20032;-78
2023/09/18 06:31:35;;;;;;;1999.90;999.90;;;18.20;99.90;;;;;;5055153;28;20384;-78
2023/09/18 06:34:01;;;;;;;1999.90;999.90;;;18.20;99.90;;;;;;5047243;28;20016;-75
2023/09/18 06:36:26;;;;;;;1999.90;999.90;;;18.20;99.90;;;;;;5049139;28;20033;-74
2023/09/18 06:38:53;;;;;;;1999.90;999.90;;;18.20;99.90;;;;;;5051504;28;20033;-78
2023/09/18 06:41:18;;;;;;;1999.90;999.90;;;18.20;99.90;;;;;;5038850;28;20029;-78
2023/09/18 06:43:44;;;;;;;1999.90;999.90;;;18.20;99.90;;;;;;5034611;28;20492;-78
2023/09/18 06:46:10;;;;;;;1999.90;999.90;;;18.20;99.90;;;;;;5040880;28;20086;-75
2023/09/18 06:48:35;;;;;;;1999.90;999.90;;;18.30;99.90;;;;;;5052551;28;20472;-75
2023/09/18 06:51:01;;;;;;;1999.90;999.90;;;18.40;99.90;;;;;;5049915;28;20037;-78
2023/09/18 06:53:30;;;;;;;1999.90;999.90;;;18.50;99.90;;;;;;5051737;28;20025;-78
2023/09/18 06:55:56;;;;;;;1999.90;999.90;;;18.60;99.90;;;;;;5051484;28;20025;-79
2023/09/18 06:58:21;;;;;;;1999.90;999.90;;;18.80;99.90;;;;;;5051414;28;20605;-74
2023/09/18 07:00:50;;;;;;;1999.90;999.90;;;18.90;99.90;;;;;;5053796;28;20028;-75
2023/09/18 07:03:17;;;;;;;1999.90;999.90;;;19.00;99.90;;;;;;5053049;28;20033;-79
2023/09/18 07:05:43;;;;;;;1999.90;999.90;;;19.20;99.90;;;;;;5047098;28;20122;-79
2023/09/18 07:08:11;;;;;;;1999.90;999.90;;;19.30;99.90;;;;;;5050211;28;20480;-78
2023/09/18 07:10:37;;;;;;;1999.90;999.90;;;19.40;99.90;;;;;;5049519;28;20021;-79
2023/09/18 07:13:03;;;;;;;1999.90;999.90;;;19.70;99.90;;;;;;5046107;28;20060;-75
2023/09/18 07:15:29;;;;;;;1999.90;999.90;;;20.00;99.90;;;;;;5039119;28;20079;-75
2023/09/18 07:17:54;;;;;;;1999.90;999.90;;;20.10;99.90;;;;;;5048813;28;20037;-79
2023/09/18 07:20:22;;;;;;;1999.90;999.90;;;20.20;99.90;;;;;;5041993;28;20397;-79
2023/09/18 07:22:48;;;;;;;1999.90;999.90;;;20.20;99.90;;;;;;5045184;28;20029;-80
2023/09/18 07:25:14;;;;;;;1999.90;999.90;;;20.20;99.90;;;;;;5049008;28;20035;-79
2023/09/18 07:27:43;;;;;;;1999.90;999.90;;;20.20;99.90;;;;;;5054240;28;20033;-75
2023/09/18 07:30:10;;;;;;;1999.90;999.90;;;20.20;99.90;;;;;;5046054;28;20108;-79
2023/09/18 07:32:36;;;;;;;1999.90;999.90;;;20.20;99.90;;;;;;5054501;28;20068;-75
2023/09/18 07:35:04;;;;;;;1999.90;999.90;;;20.10;99.90;;;;;;5057935;28;20448;-79
2023/09/18 07:37:30;;;;;;;1999.90;999.90;;;20.10;99.90;;;;;;5060033;28;20017;-75
2023/09/18 07:39:56;;;;;;;1999.90;999.90;;;20.00;99.90;;;;;;5055020;28;20029;-79
2023/09/18 07:42:25;;;;;;;1999.90;999.90;;;20.00;99.90;;;;;;5053150;28;20033;-79
2023/09/18 07:44:51;;;;;;;1999.90;999.90;;;20.10;99.90;;;;;;5053653;28;20491;-79
2023/09/18 07:47:16;;;;;;;1999.90;999.90;;;20.40;99.90;;;;;;5053406;28;20148;-79
2023/09/18 07:49:42;;;;;;;1999.90;999.90;;;20.70;99.90;;;;;;5052408;28;20029;-79
2023/09/18 07:52:07;;;;;;;1999.90;999.90;;;21.50;99.90;;;;;;5051927;28;20029;-76
2023/09/18 07:54:33;;;;;;;1999.90;999.90;;;24.10;99.90;;;;;;5054705;28;20024;-76
2023/09/18 07:57:00;;;;;;;1999.90;999.90;;;26.10;99.90;;;;;;5052936;28;20047;-79
2023/09/18 07:59:25;;;;;;;1999.90;999.90;;;27.20;99.90;;;;;;5054553;28;20021;-79
2023/09/18 08:01:52;;;;;;;1999.90;999.90;;;28.30;99.90;;;;;;5060383;28;20036;-79
2023/09/18 08:04:17;;;;;;;1999.90;999.90;;;28.80;99.90;;;;;;5060217;28;20506;-76
2023/09/18 08:06:43;;;;;;;1999.90;999.90;;;29.10;99.90;;;;;;5049121;28;20037;-75
2023/09/18 08:09:14;;;;;;;1999.90;999.90;;;29.20;99.90;;;;;;5054698;28;20113;-80
2023/09/18 08:11:42;;;;;;;1999.90;999.90;;;28.10;99.90;;;;;;5054091;28;20086;-75
2023/09/18 08:14:07;;;;;;;1999.90;999.90;;;26.60;99.90;;;;;;5054698;28;20017;-80
2023/09/18 08:16:33;;;;;;;1999.90;999.90;;;26.10;99.90;;;;;;5067210;28;20051;-74
2023/09/18 08:19:01;;;;;;;1999.90;999.90;;;26.00;99.90;;;;;;5071950;28;20136;-75
2023/09/18 08:21:28;;;;;;;1999.90;999.90;;;24.60;99.90;;;;;;5054325;28;20095;-79
2023/09/18 08:23:54;;;;;;;1999.90;999.90;;;23.70;99.90;;;;;;5054723;28;20032;-74
2023/09/18 08:26:20;;;;;;;1999.90;999.90;;;23.20;99.90;;;;;;5054442;28;20423;-79
2023/09/18 08:28:46;;;;;;;1999.90;999.90;;;23.20;99.90;;;;;;5056005;28;20032;-79
2023/09/18 08:31:12;;;;;;;1999.90;999.90;;;24.30;99.90;;;;;;5065365;28;20036;-75
2023/09/18 08:33:37;;;;;;;1999.90;999.90;;;27.70;99.90;;;;;;5053743;28;20555;-75
2023/09/18 08:36:03;;;;;;;1999.90;999.90;;;29.90;99.90;;;;;;5054268;28;20018;-79
2023/09/18 08:38:29;;;;;;;1999.90;999.90;;;28.40;99.90;;;;;;5054438;28;20479;-79
2023/09/18 08:40:55;;;;;;;1999.90;999.90;;;29.50;99.90;;;;;;5052379;28;20099;-79
2023/09/18 08:43:22;;;;;;;1999.90;999.90;;;31.50;99.90;;;;;;5053465;28;20500;-75
2023/09/18 08:45:52;;;;;;;1999.90;999.90;;;31.90;99.90;;;;;;5072153;28;20047;-80
2023/09/18 08:48:18;;;;;;;1999.90;999.90;;;32.20;99.90;;;;;;5058128;28;20388;-79
2023/09/18 08:50:45;;;;;;;1999.90;999.90;;;32.50;99.90;;;;;;5067940;28;20016;-79
2023/09/18 08:53:11;;;;;;;1999.90;999.90;;;28.80;99.90;;;;;;5051674;28;20029;-79
2023/09/18 08:55:37;;;;;;;1999.90;999.90;;;28.10;99.90;;;;;;5044927;28;20029;-78
2023/09/18 08:58:03;;;;;;;1999.90;999.90;;;30.00;99.90;;;;;;5045675;28;20044;-76
2023/09/18 09:00:29;;;;;;;1999.90;999.90;;;32.00;99.90;;;;;;5051844;28;20033;-76
2023/09/18 09:02:54;;;;;;;1999.90;999.90;;;32.70;99.90;;;;;;5049437;28;20118;-76
2023/09/18 09:05:23;;;;;;;1999.90;999.90;;;30.40;99.90;;;;;;5051035;28;20041;-72
2023/09/18 09:07:50;;;;;;;1999.90;999.90;;;28.50;99.90;;;;;;5047510;28;20565;-75
2023/09/18 09:10:16;;;;;;;1999.90;999.90;;;27.00;99.90;;;;;;5046429;28;20099;-75
2023/09/18 09:12:54;;;;;;;1999.90;999.90;;;25.60;99.90;;;;;;5052504;28;20037;-78
2023/09/18 09:15:28;;;;;;;1999.90;999.90;;;25.40;99.90;;;;;;5055450;28;20024;-78
2023/09/18 09:18:05;;;;;;;1999.90;999.90;;;24.60;99.90;;;;;;5045922;28;20033;-78
2023/09/18 09:20:31;;;;;;;1999.90;999.90;;;24.70;99.90;;;;;;5052119;28;20044;-74
2023/09/18 09:23:06;;;;;;;1999.90;999.90;;;24.20;99.90;;;;;;5047005;28;20029;-78
2023/09/18 09:25:33;;;;;;;1999.90;999.90;;;24.80;99.90;;;;;;5051689;28;20120;-78
2023/09/18 09:28:00;;;;;;;1999.90;999.90;;;25.20;99.90;;;;;;5053728;28;20365;-78
2023/09/18 09:30:27;;;;;;;1999.90;999.90;;;25.50;99.90;;;;;;5050986;28;20533;-78
2023/09/18 09:32:55;;;;;;;1999.90;999.90;;;26.00;99.90;;;;;;5052151;28;20040;-78
2023/09/18 09:35:28;;;;;;;1999.90;999.90;;;26.10;99.90;;;;;;5052248;28;20052;-79
2023/09/18 09:38:00;;;;;;;1999.90;999.90;;;25.80;99.90;;;;;;5052461;28;20048;-79
2023/09/18 09:40:28;;;;;;;1999.90;999.90;;;25.00;99.90;;;;;;5052156;28;20135;-78
2023/09/18 09:43:00;;;;;;;1999.90;999.90;;;24.40;99.90;;;;;;5052619;28;20064;-78
2023/09/18 09:45:31;;;;;;;1999.90;999.90;;;24.90;99.90;;;;;;5059434;28;20033;-79
2023/09/18 09:47:57;;;;;;;1999.90;999.90;;;25.50;99.90;;;;;;5053565;28;20033;-75
2023/09/18 09:50:25;;;;;;;1999.90;999.90;;;26.00;99.90;;;;;;5052819;28;20132;-73
2023/09/18 09:52:52;;;;;;;1999.90;999.90;;;26.00;99.90;;;;;;5051577;28;20040;-78
2023/09/18 09:55:30;;;;;;;1999.90;999.90;;;25.90;99.90;;;;;;5052270;28;20562;-78
2023/09/18 09:58:01;;;;;;;1999.90;999.90;;;26.10;99.90;;;;;;5052468;28;20460;-76
2023/09/18 10:00:42;;;;;;;1999.90;999.90;;;25.70;99.90;;;;;;5058385;28;20032;-74
2023/09/18 10:03:12;;;;;;;1999.90;999.90;;;25.90;99.90;;;;;;5051495;28;20028;-74
2023/09/18 10:05:39;;;;;;;1999.90;999.90;;;25.80;99.90;;;;;;5051117;28;20647;-77
2023/09/18 10:08:12;;;;;;;1999.90;999.90;;;26.00;99.90;;;;;;5050117;28;20029;-74
2023/09/18 10:10:55;;;;;;;1999.90;999.90;;;26.20;99.90;;;;;;5051774;28;20491;-76
2023/09/18 10:13:40;;;;;;;1999.90;999.90;;;26.40;99.90;;;;;;5052618;28;20032;-76
2023/09/18 10:16:07;;;;;;;1999.90;999.90;;;26.80;99.90;;;;;;5050041;28;20079;-74
2023/09/18 10:19:08;;;;;;;1999.90;999.90;;;26.90;99.90;;;;;;5051275;28;20017;-77
2023/09/18 10:21:41;;;;;;;1999.90;999.90;;;26.50;99.90;;;;;;5050052;28;20488;-76
2023/09/18 10:24:24;;;;;;;1999.90;999.90;;;25.90;99.90;;;;;;5049586;28;20464;-77
2023/09/18 10:26:58;;;;;;;1999.90;999.90;;;25.20;99.90;;;;;;5051148;28;20028;-75
2023/09/18 10:29:30;;;;;;;1999.90;999.90;;;25.10;99.90;;;;;;5047007;28;20045;-75
2023/09/18 10:31:55;;;;;;;1999.90;999.90;;;25.00;99.90;;;;;;5056597;28;20036;-77
2023/09/18 10:34:23;;;;;;;1999.90;999.90;;;24.90;99.90;;;;;;5050837;28;20487;-78
2023/09/18 10:36:51;;;;;;;1999.90;999.90;;;25.00;99.90;;;;;;5051205;28;20040;-77
2023/09/18 10:39:22;;;;;;;1999.90;999.90;;;25.20;99.90;;;;;;5059305;28;20024;-75
2023/09/18 10:41:50;;;;;;;1999.90;999.90;;;25.20;99.90;;;;;;5048081;28;20021;-75
2023/09/18 10:44:17;;;;;;;1999.90;999.90;;;25.00;99.90;;;;;;5061340;28;20036;-76
2023/09/18 10:46:44;;;;;;;1999.90;999.90;;;24.80;99.90;;;;;;5053162;28;20052;-77
2023/09/18 10:49:10;;;;;;;1999.90;999.90;;;24.70;99.90;;;;;;5048986;28;20123;-76
2023/09/18 10:51:40;;;;;;;1999.90;999.90;;;24.50;99.90;;;;;;5045811;28;20032;-76
2023/09/18 10:54:08;;;;;;;1999.90;999.90;;;24.60;99.90;;;;;;5048509;28;20188;-74
2023/09/18 10:56:34;;;;;;;1999.90;999.90;;;24.50;99.90;;;;;;5048363;28;20027;-76
2023/09/18 10:59:01;;;;;;;1999.90;999.90;;;24.40;99.90;;;;;;5048075;28;20025;-76
2023/09/18 11:01:29;;;;;;;1999.90;999.90;;;24.40;99.90;;;;;;5048670;28;20071;-76
2023/09/18 11:04:01;;;;;;;1999.90;999.90;;;24.60;99.90;;;;;;5041573;28;20436;-76
2023/09/18 11:06:27;;;;;;;1999.90;999.90;;;24.50;99.90;;;;;;5050769;28;20060;-74
2023/09/18 11:09:04;;;;;;;1999.90;999.90;;;24.10;99.90;;;;;;5045395;28;20115;-77
2023/09/18 11:11:32;;;;;;;1999.90;999.90;;;23.70;99.90;;;;;;5048597;28;20037;-76
2023/09/18 11:13:59;;;;;;;1999.90;999.90;;;23.30;99.90;;;;;;5054785;28;20033;-74
2023/09/18 11:16:28;;;;;;;1999.90;999.90;;;23.20;99.90;;;;;;5047264;28;20037;-76
2023/09/18 11:18:57;;;;;;;1999.90;999.90;;;23.40;99.90;;;;;;5046601;28;20024;-74
2023/09/18 11:21:25;;;;;;;1999.90;999.90;;;23.60;99.90;;;;;;5049569;28;20029;-75
2023/09/18 11:24:04;;;;;;;1999.90;999.90;;;23.90;99.90;;;;;;5051038;28;20025;-77
2023/09/18 11:26:32;;;;;;;1999.90;999.90;;;23.90;99.90;;;;;;5046509;28;20053;-76
2023/09/18 11:29:05;;;;;;;1999.90;999.90;;;23.90;99.90;;;;;;5049999;28;20033;-77
2023/09/18 11:31:56;;;;;;;1999.90;999.90;;;23.90;99.90;;;;;;5053445;28;20025;-76
2023/09/18 11:34:30;;;;;;;1999.90;999.90;;;23.80;99.90;;;;;;5041499;28;20017;-74
2023/09/18 11:36:57;;;;;;;1999.90;999.90;;;23.70;99.90;;;;;;5039215;28;20026;-76
2023/09/18 11:39:52;;;;;;;1999.90;999.90;;;23.60;99.90;;;;;;5045159;28;20495;-77
2023/09/18 11:42:22;;;;;;;1999.90;999.90;;;23.50;99.90;;;;;;5044677;28;20110;-76
2023/09/18 11:44:49;;;;;;;1999.90;999.90;;;23.00;99.90;;;;;;5050786;28;20559;-74
2023/09/18 11:47:19;;;;;;;1999.90;999.90;;;23.00;99.90;;;;;;5050621;28;20486;-76
2023/09/18 11:49:57;;;;;;;1999.90;999.90;;;23.00;99.90;;;;;;5036173;28;20495;-76
2023/09/18 11:52:28;;;;;;;1999.90;999.90;;;22.90;99.90;;;;;;5049345;28;20037;-76
2023/09/18 11:54:58;;;;;;;1999.90;999.90;;;23.40;99.90;;;;;;5046119;28;20025;-76
2023/09/18 11:57:24;;;;;;;1999.90;999.90;;;23.70;99.90;;;;;;5049509;28;20107;-74
2023/09/18 11:59:51;;;;;;;1999.90;999.90;;;24.00;99.90;;;;;;5049527;28;20088;-76